Time;durP1;ratioP1;P1;durP2;ratioP2;P2;SDS_P1;SDS_P2;PMS_P1;PMS_P2;Temp;Humidity;BMP_temperature;BMP_pressure;BME280_temperature;BME280_humidity;BME280_pressure;Samples;Min_cycle;Max_cycle;Signal;HPM_P1;HPM_P2
2023/07/21 00:00:14;;;;;;;3.50;2.88;;;19.60;58.30;;;;;;5060251;28;20090;-47
2023/07/21 00:02:49;;;;;;;5.85;4.35;;;19.50;58.30;;;;;;5064603;28;20039;-51
2023/07/21 00:05:22;;;;;;;2.75;2.55;;;19.50;58.40;;;;;;5062064;28;20037;-50
2023/07/21 00:07:51;;;;;;;3.22;3.03;;;19.40;58.40;;;;;;5064529;28;20079;-51
2023/07/21 00:10:18;;;;;;;3.30;2.97;;;19.40;58.50;;;;;;5065458;28;20036;-51
2023/07/21 00:12:47;;;;;;;2.80;2.60;;;19.40;58.70;;;;;;5065218;28;20044;-48
2023/07/21 00:15:18;;;;;;;3.33;3.08;;;19.40;58.80;;;;;;5067098;28;20090;-46
2023/07/21 00:17:49;;;;;;;3.97;3.35;;;19.40;59.00;;;;;;5063668;28;20037;-47
2023/07/21 00:20:21;;;;;;;3.20;2.95;;;19.40;59.00;;;;;;5064149;28;20036;-47
2023/07/21 00:22:50;;;;;;;3.00;2.80;;;19.40;59.10;;;;;;5064730;28;20036;-51
2023/07/21 00:25:17;;;;;;;5.65;3.30;;;19.30;59.30;;;;;;5062556;28;20098;-48
2023/07/21 00:27:44;;;;;;;3.13;2.92;;;19.30;59.30;;;;;;5065308;28;20078;-49
2023/07/21 00:30:16;;;;;;;3.53;3.20;;;19.30;59.60;;;;;;5045148;28;20067;-47
2023/07/21 00:32:46;;;;;;;3.28;2.97;;;19.30;59.40;;;;;;5065903;28;20089;-49
2023/07/21 00:35:12;;;;;;;3.80;3.50;;;19.30;59.60;;;;;;5062536;28;20044;-50
2023/07/21 00:37:40;;;;;;;4.00;3.15;;;19.30;59.50;;;;;;5048393;28;20044;-49
2023/07/21 00:40:18;;;;;;;4.00;3.70;;;19.30;59.60;;;;;;5045588;28;20641;-48
2023/07/21 00:42:46;;;;;;;4.00;3.33;;;19.30;59.70;;;;;;5043973;28;20036;-48
2023/07/21 00:45:14;;;;;;;3.35;3.03;;;19.30;59.80;;;;;;5044953;28;20037;-51
2023/07/21 00:47:44;;;;;;;3.75;3.45;;;19.30;59.90;;;;;;5047796;28;20534;-47
2023/07/21 00:50:16;;;;;;;3.72;3.42;;;19.30;60.00;;;;;;5042845;28;20041;-47
2023/07/21 00:52:51;;;;;;;3.35;3.15;;;19.30;59.90;;;;;;5046960;28;20050;-51
2023/07/21 00:55:18;;;;;;;3.55;3.25;;;19.30;60.30;;;;;;5062659;28;20039;-48
2023/07/21 00:57:45;;;;;;;3.53;3.28;;;19.30;59.70;;;;;;5046383;28;20189;-51
2023/07/21 01:00:13;;;;;;;3.45;3.10;;;19.30;59.70;;;;;;5061643;28;20040;-47
2023/07/21 01:02:43;;;;;;;4.03;3.67;;;19.30;59.80;;;;;;5065051;28;20405;-50
2023/07/21 01:05:12;;;;;;;3.25;2.80;;;19.30;59.90;;;;;;5045050;28;20044;-48
2023/07/21 01:07:41;;;;;;;3.90;3.60;;;19.30;59.70;;;;;;5064199;28;20029;-48
2023/07/21 01:10:08;;;;;;;2.97;2.72;;;19.30;59.80;;;;;;5045459;28;20056;-49
2023/07/21 01:12:35;;;;;;;3.28;3.05;;;19.30;59.70;;;;;;5065059;28;20041;-47
2023/07/21 01:15:02;;;;;;;3.95;3.65;;;19.30;59.70;;;;;;5050365;28;20137;-49
2023/07/21 01:17:35;;;;;;;3.60;3.30;;;19.30;59.70;;;;;;5065215;28;20110;-50
2023/07/21 01:20:08;;;;;;;4.22;3.83;;;19.30;59.80;;;;;;5043782;28;20524;-49
2023/07/21 01:23:06;;;;;;;3.65;3.40;;;19.20;60.00;;;;;;5059048;28;20032;-49
2023/07/21 01:25:34;;;;;;;4.03;3.72;;;19.20;60.50;;;;;;5065146;28;20444;-47
2023/07/21 01:28:04;;;;;;;3.70;3.40;;;19.20;60.00;;;;;;5066209;28;20063;-51
2023/07/21 01:30:32;;;;;;;3.80;3.60;;;19.20;60.00;;;;;;5062830;28;20041;-50
2023/07/21 01:33:03;;;;;;;4.60;3.72;;;19.10;59.90;;;;;;5063925;28;20466;-50
2023/07/21 01:35:30;;;;;;;4.25;3.95;;;19.10;60.10;;;;;;5066088;28;20059;-47
2023/07/21 01:37:59;;;;;;;3.60;3.33;;;19.10;59.80;;;;;;5067441;28;20563;-47
2023/07/21 01:40:27;;;;;;;3.70;3.42;;;19.10;59.80;;;;;;5046927;28;20037;-50
2023/07/21 01:42:56;;;;;;;3.72;3.38;;;19.10;59.90;;;;;;5047152;28;20089;-49
2023/07/21 01:45:26;;;;;;;4.07;3.80;;;19.10;59.80;;;;;;5046592;28;20033;-51
2023/07/21 01:47:56;;;;;;;3.67;3.40;;;19.00;59.90;;;;;;5065883;28;20045;-51
2023/07/21 01:50:29;;;;;;;4.10;3.80;;;19.00;60.00;;;;;;5049392;28;20048;-50
2023/07/21 01:53:01;;;;;;;3.75;3.47;;;19.00;60.30;;;;;;5048080;28;20044;-51
2023/07/21 01:55:39;;;;;;;3.90;3.60;;;19.00;61.30;;;;;;5048159;28;20055;-46
2023/07/21 01:58:09;;;;;;;4.05;3.75;;;19.00;61.20;;;;;;5061936;28;20071;-48
2023/07/21 02:00:41;;;;;;;4.00;3.67;;;19.00;61.00;;;;;;5044831;28;20037;-49
2023/07/21 02:03:18;;;;;;;4.70;4.30;;;19.00;61.40;;;;;;5048060;28;20036;-46
2023/07/21 02:05:50;;;;;;;6.20;5.70;;;19.00;61.20;;;;;;5067429;28;20402;-49
2023/07/21 02:08:21;;;;;;;4.97;4.68;;;19.00;61.30;;;;;;5062321;28;20037;-48
2023/07/21 02:10:52;;;;;;;5.30;4.90;;;19.00;61.60;;;;;;5043285;28;20534;-48
2023/07/21 02:13:27;;;;;;;5.55;5.10;;;19.00;61.40;;;;;;5047337;28;20045;-48
2023/07/21 02:15:55;;;;;;;5.25;4.85;;;19.10;61.40;;;;;;5054044;28;20048;-46
2023/07/21 02:18:23;;;;;;;5.07;4.70;;;19.00;61.40;;;;;;5045439;28;20052;-49
2023/07/21 02:20:52;;;;;;;5.72;5.22;;;19.10;61.40;;;;;;5066626;28;20048;-49
2023/07/21 02:23:22;;;;;;;5.47;4.95;;;19.10;61.60;;;;;;5047277;28;20090;-50
2023/07/21 02:25:51;;;;;;;;;;;19.10;61.40;;;;;;5066127;28;20418;-48
2023/07/21 02:28:18;;;;;;;6.70;4.88;;;19.10;61.00;;;;;;5049934;28;19921;-49
2023/07/21 02:31:03;;;;;;;4.93;4.45;;;19.10;60.60;;;;;;5047053;28;20044;-47
2023/07/21 02:33:31;;;;;;;4.75;4.35;;;19.10;61.10;;;;;;5069473;28;20072;-51
2023/07/21 02:35:59;;;;;;;6.00;5.38;;;19.00;60.80;;;;;;5071420;28;20395;-46
2023/07/21 02:38:27;;;;;;;7.50;5.60;;;19.00;60.80;;;;;;5070098;28;20044;-47
2023/07/21 02:40:55;;;;;;;7.35;5.10;;;19.00;60.80;;;;;;5066220;28;20418;-50
2023/07/21 02:43:23;;;;;;;6.35;5.70;;;18.90;60.80;;;;;;5069409;28;20131;-48
2023/07/21 02:45:52;;;;;;;5.40;4.90;;;18.90;61.00;;;;;;5071175;28;20126;-50
2023/07/21 02:48:22;;;;;;;9.32;5.93;;;18.90;60.90;;;;;;5067958;28;20033;-47
2023/07/21 02:50:50;;;;;;;5.85;5.25;;;18.90;61.10;;;;;;5071104;28;20098;-51
2023/07/21 02:53:20;;;;;;;6.38;5.88;;;18.80;61.00;;;;;;5051737;28;20049;-50
2023/07/21 02:56:00;;;;;;;7.07;6.43;;;18.80;60.90;;;;;;5051255;28;20129;-51
2023/07/21 02:58:27;;;;;;;5.72;5.28;;;18.70;61.00;;;;;;5050906;28;20045;-48
2023/07/21 03:00:58;;;;;;;6.22;5.63;;;18.70;60.90;;;;;;5068149;28;20042;-47
2023/07/21 03:03:35;;;;;;;5.90;5.40;;;18.70;60.80;;;;;;5052550;28;20488;-51
2023/07/21 03:06:13;;;;;;;7.22;6.63;;;18.60;60.80;;;;;;5053486;28;20072;-51
2023/07/21 03:08:44;;;;;;;7.15;6.40;;;18.60;60.80;;;;;;5051125;28;20564;-50
2023/07/21 03:11:13;;;;;;;6.90;6.25;;;18.60;61.00;;;;;;5053295;28;20140;-48
2023/07/21 03:13:56;;;;;;;6.68;5.93;;;18.50;61.10;;;;;;5052675;28;20047;-50
2023/07/21 03:16:28;;;;;;;6.70;6.10;;;18.50;60.80;;;;;;5058329;28;20566;-47
2023/07/21 03:18:58;;;;;;;;;;;18.50;60.70;;;;;;5050355;28;20445;-51
2023/07/21 03:21:27;;;;;;;5.97;5.38;;;18.50;60.40;;;;;;5052479;28;19924;-49
2023/07/21 03:23:55;;;;;;;7.47;6.57;;;18.40;60.00;;;;;;5053240;28;20047;-48
2023/07/21 03:26:27;;;;;;;6.57;6.03;;;18.40;60.20;;;;;;5054154;28;20131;-47
2023/07/21 03:28:57;;;;;;;8.82;6.97;;;18.30;60.20;;;;;;5035831;28;20045;-50
2023/07/21 03:31:29;;;;;;;8.32;6.97;;;18.30;60.30;;;;;;5048150;28;20053;-51
2023/07/21 03:33:59;;;;;;;8.68;7.88;;;18.20;60.40;;;;;;5033524;28;20107;-47
2023/07/21 03:36:29;;;;;;;8.40;7.55;;;18.20;60.50;;;;;;5033774;28;20503;-50
2023/07/21 03:39:00;;;;;;;8.80;8.10;;;18.10;60.50;;;;;;5039398;28;20135;-47
2023/07/21 03:41:30;;;;;;;8.57;7.75;;;18.10;60.80;;;;;;5055949;28;20071;-51
2023/07/21 03:43:58;;;;;;;9.02;8.23;;;18.10;60.80;;;;;;5032983;28;20099;-49
2023/07/21 03:46:27;;;;;;;9.60;8.65;;;18.10;60.90;;;;;;5052405;28;20052;-51
2023/07/21 03:49:11;;;;;;;10.60;9.50;;;18.10;61.20;;;;;;5033248;28;20056;-48
2023/07/21 03:51:45;;;;;;;10.63;9.52;;;18.10;61.40;;;;;;5035301;28;20099;-46
2023/07/21 03:54:14;;;;;;;11.52;10.50;;;18.00;61.40;;;;;;5034253;28;20072;-49
2023/07/21 03:56:46;;;;;;;11.15;9.68;;;18.00;61.80;;;;;;5036418;28;20056;-51
2023/07/21 03:59:13;;;;;;;10.73;9.73;;;18.00;61.90;;;;;;5057330;28;20472;-49
2023/07/21 04:01:40;;;;;;;11.25;9.82;;;18.00;62.30;;;;;;5066133;28;20033;-50
2023/07/21 04:04:09;;;;;;;10.32;8.73;;;18.00;62.30;;;;;;5081735;22;20053;-47
2023/07/21 04:06:36;;;;;;;10.10;9.10;;;18.00;62.00;;;;;;5041381;28;20041;-46
2023/07/21 04:09:09;;;;;;;;;;;18.00;61.90;;;;;;5052858;28;20405;-47
2023/07/21 04:11:38;;;;;;;8.90;8.05;;;18.10;61.70;;;;;;5071194;28;19991;-51
2023/07/21 04:14:12;;;;;;;9.82;8.88;;;18.10;61.50;;;;;;5044592;28;20041;-49
2023/07/21 04:16:39;;;;;;;9.68;8.77;;;18.00;61.40;;;;;;5069901;28;20044;-49
2023/07/21 04:19:05;;;;;;;10.90;9.80;;;18.10;61.60;;;;;;5056170;28;20414;-51
2023/07/21 04:21:32;;;;;;;11.10;9.85;;;18.00;61.80;;;;;;5048599;28;20484;-51
2023/07/21 04:23:59;;;;;;;10.80;9.70;;;18.00;62.00;;;;;;5042804;28;20133;-51
2023/07/21 04:26:26;;;;;;;11.05;9.95;;;18.00;62.10;;;;;;5062287;28;20033;-49
2023/07/21 04:28:57;;;;;;;11.65;10.65;;;18.00;62.10;;;;;;5036960;28;20037;-51
2023/07/21 04:31:28;;;;;;;11.82;10.63;;;18.00;62.80;;;;;;5051912;28;20064;-50
2023/07/21 04:34:08;;;;;;;12.10;10.80;;;18.00;62.20;;;;;;5039566;28;20499;-48
2023/07/21 04:36:38;;;;;;;11.80;10.68;;;18.00;62.60;;;;;;5045601;28;20051;-51
2023/07/21 04:39:21;;;;;;;12.15;10.95;;;18.00;62.80;;;;;;5046470;28;20045;-49
2023/07/21 04:41:48;;;;;;;11.73;10.57;;;18.00;62.90;;;;;;5047399;28;20558;-50
2023/07/21 04:44:16;;;;;;;13.55;11.75;;;18.00;62.80;;;;;;5048259;28;20041;-51
2023/07/21 04:46:46;;;;;;;11.10;10.10;;;18.00;63.00;;;;;;5066076;28;20095;-50
2023/07/21 04:49:17;;;;;;;12.43;11.23;;;18.10;63.20;;;;;;5046183;28;20064;-47
2023/07/21 04:51:46;;;;;;;13.32;12.02;;;18.10;63.40;;;;;;5047775;28;20040;-46
2023/07/21 04:54:12;;;;;;;13.80;12.43;;;18.10;63.60;;;;;;5063133;28;20040;-50
2023/07/21 04:56:39;;;;;;;13.15;12.10;;;18.10;63.80;;;;;;5069571;28;20149;-50
2023/07/21 04:59:08;;;;;;;14.65;13.25;;;18.20;64.30;;;;;;5047918;28;20068;-50
2023/07/21 05:01:35;;;;;;;14.63;13.20;;;18.30;64.40;;;;;;5050025;28;20565;-45
2023/07/21 05:04:02;;;;;;;14.50;13.07;;;18.30;64.60;;;;;;5047900;28;20059;-45
2023/07/21 05:06:29;;;;;;;15.20;13.27;;;18.30;64.70;;;;;;5048306;28;20067;-48
2023/07/21 05:08:58;;;;;;;14.35;13.07;;;18.40;64.80;;;;;;5048290;28;20086;-46
2023/07/21 05:11:25;;;;;;;14.32;13.02;;;18.40;64.80;;;;;;5049678;28;20490;-50
2023/07/21 05:13:52;;;;;;;14.05;12.68;;;18.50;64.80;;;;;;5045210;28;20572;-47
2023/07/21 05:16:37;;;;;;;15.55;13.95;;;18.50;64.90;;;;;;5060783;28;20124;-48
2023/07/21 05:19:36;;;;;;;13.68;12.35;;;18.50;64.70;;;;;;5019934;28;20078;-52
2023/07/21 05:22:16;;;;;;;14.07;12.77;;;18.60;64.70;;;;;;5046580;28;20124;-49
2023/07/21 05:25:08;;;;;;;12.32;11.23;;;18.60;64.60;;;;;;5052684;28;20141;-50
2023/07/21 05:27:38;;;;;;;12.40;11.25;;;18.60;64.60;;;;;;5044953;28;20529;-50
2023/07/21 05:30:11;;;;;;;13.75;12.48;;;18.60;64.60;;;;;;5038396;28;20545;-50
2023/07/21 05:32:41;;;;;;;13.77;11.07;;;18.60;64.80;;;;;;5049198;28;20072;-49
2023/07/21 05:35:13;;;;;;;14.98;13.50;;;18.70;64.90;;;;;;5043367;28;20041;-50
2023/07/21 05:37:43;;;;;;;14.10;12.52;;;18.70;64.90;;;;;;5042857;28;20048;-47
2023/07/21 05:40:11;;;;;;;14.48;13.05;;;18.70;65.00;;;;;;5041465;28;20049;-50
2023/07/21 05:42:40;;;;;;;13.93;12.52;;;18.80;65.20;;;;;;5060033;28;20131;-50
2023/07/21 05:45:09;;;;;;;14.90;13.60;;;18.80;65.20;;;;;;5049552;28;20063;-51
2023/07/21 05:47:38;;;;;;;15.05;13.65;;;18.80;65.20;;;;;;5048823;28;20048;-51
2023/07/21 05:50:05;;;;;;;13.85;12.65;;;18.90;65.30;;;;;;5065617;28;20040;-51
2023/07/21 05:52:34;;;;;;;14.25;12.90;;;18.90;65.40;;;;;;5044986;28;20612;-46
2023/07/21 05:55:03;;;;;;;14.15;12.77;;;18.90;65.40;;;;;;5047754;28;20127;-47
2023/07/21 05:57:32;;;;;;;14.73;13.13;;;18.90;65.30;;;;;;5044789;28;20064;-49
2023/07/21 05:59:59;;;;;;;15.18;13.80;;;19.00;65.40;;;;;;5048339;28;20082;-49
2023/07/21 06:02:26;;;;;;;15.35;13.90;;;19.00;65.20;;;;;;5043120;28;20048;-49
2023/07/21 06:04:57;;;;;;;14.35;12.95;;;19.10;65.20;;;;;;5046864;28;20044;-47
2023/07/21 06:07:44;;;;;;;13.80;12.60;;;19.10;65.10;;;;;;5048507;28;20117;-49
2023/07/21 06:10:34;;;;;;;14.32;12.93;;;19.10;65.00;;;;;;5067653;28;20436;-51
2023/07/21 06:13:06;;;;;;;14.13;12.82;;;19.20;64.90;;;;;;5052559;28;20052;-50
2023/07/21 06:15:51;;;;;;;13.90;12.48;;;19.20;64.80;;;;;;5050154;28;20059;-50
2023/07/21 06:18:27;;;;;;;13.68;12.38;;;19.20;64.80;;;;;;5052279;28;20588;-49
2023/07/21 06:20:54;;;;;;;13.35;12.05;;;19.30;64.70;;;;;;5045140;28;20071;-49
2023/07/21 06:23:23;;;;;;;13.32;12.02;;;19.30;65.00;;;;;;5045371;28;20068;-47
2023/07/21 06:25:50;;;;;;;13.98;12.55;;;19.30;65.20;;;;;;5046922;28;20124;-49
2023/07/21 06:28:18;;;;;;;12.75;11.55;;;19.40;64.90;;;;;;5053670;28;20032;-50
2023/07/21 06:30:44;;;;;;;13.55;12.25;;;19.40;64.70;;;;;;5049727;28;20059;-51
2023/07/21 06:33:21;;;;;;;13.52;12.25;;;19.50;64.40;;;;;;5053875;28;20131;-52
2023/07/21 06:35:54;;;;;;;13.93;12.63;;;19.50;64.30;;;;;;5048100;28;20048;-51
2023/07/21 06:38:28;;;;;;;12.88;11.57;;;19.50;64.30;;;;;;5053688;28;20045;-50
2023/07/21 06:41:11;;;;;;;12.88;11.60;;;19.60;64.80;;;;;;5061200;28;20048;-49
2023/07/21 06:43:47;;;;;;;12.70;11.40;;;19.60;64.70;;;;;;5053733;28;20039;-48
2023/07/21 06:46:24;;;;;;;12.60;11.32;;;19.70;64.40;;;;;;5046325;28;20040;-51
2023/07/21 06:49:05;;;;;;;12.77;11.48;;;19.70;64.00;;;;;;5047771;28;20045;-47
2023/07/21 06:51:49;;;;;;;12.85;11.65;;;19.80;63.90;;;;;;5050225;28;20059;-52
2023/07/21 06:54:16;;;;;;;12.15;11.05;;;19.80;63.60;;;;;;5057695;28;20056;-51
2023/07/21 06:56:43;;;;;;;12.23;11.13;;;19.80;63.50;;;;;;5044052;28;20578;-50
2023/07/21 06:59:09;;;;;;;12.60;11.40;;;19.90;63.70;;;;;;5051815;28;20073;-51
2023/07/21 07:01:36;;;;;;;13.23;11.90;;;19.90;63.60;;;;;;5067295;28;20102;-49
2023/07/21 07:04:03;;;;;;;12.65;11.35;;;20.00;63.60;;;;;;5062848;28;20059;-51
2023/07/21 07:06:30;;;;;;;12.40;11.23;;;20.00;64.50;;;;;;5063142;28;20036;-51
2023/07/21 07:08:56;;;;;;;11.65;10.52;;;20.10;63.60;;;;;;5051850;28;20049;-51
2023/07/21 07:11:24;;;;;;;10.80;9.80;;;20.20;63.20;;;;;;5067084;28;20086;-47
2023/07/21 07:13:51;;;;;;;11.18;9.68;;;20.30;63.10;;;;;;5063751;28;20052;-50
2023/07/21 07:16:18;;;;;;;10.43;9.50;;;20.40;62.30;;;;;;5049746;28;20040;-50
2023/07/21 07:18:44;;;;;;;8.88;8.10;;;20.50;61.90;;;;;;5066556;28;20083;-50
2023/07/21 07:21:12;;;;;;;9.70;8.70;;;20.60;61.30;;;;;;5050225;28;20594;-48
2023/07/21 07:23:39;;;;;;;12.40;9.82;;;20.70;60.90;;;;;;5066527;28;20603;-50
2023/07/21 07:26:06;;;;;;;9.32;8.50;;;20.80;60.90;;;;;;5046937;28;20064;-51
2023/07/21 07:28:36;;;;;;;9.63;8.73;;;20.90;60.60;;;;;;5050046;28;20128;-47
2023/07/21 07:31:04;;;;;;;9.57;8.63;;;20.90;60.40;;;;;;5067186;28;20040;-50
2023/07/21 07:33:31;;;;;;;8.95;8.15;;;21.00;60.30;;;;;;5066929;28;20151;-51
2023/07/21 07:35:59;;;;;;;8.07;7.30;;;21.00;59.90;;;;;;5058255;28;20075;-52
2023/07/21 07:38:28;;;;;;;8.27;7.55;;;21.10;59.60;;;;;;5066246;28;20572;-50
2023/07/21 07:41:06;;;;;;;8.15;7.45;;;21.20;59.40;;;;;;5070801;28;20460;-50
2023/07/21 07:43:32;;;;;;;7.85;7.15;;;21.20;59.10;;;;;;5048694;28;20052;-52
2023/07/21 07:46:00;;;;;;;8.82;6.60;;;21.30;59.10;;;;;;5061100;28;20885;-51
2023/07/21 07:48:27;;;;;;;8.55;7.72;;;21.30;58.90;;;;;;5065671;28;20549;-47
2023/07/21 07:50:54;;;;;;;9.02;8.18;;;21.40;59.10;;;;;;5068008;28;20048;-52
2023/07/21 07:53:21;;;;;;;8.13;7.32;;;21.50;59.30;;;;;;5066706;28;20033;-47
2023/07/21 07:55:48;;;;;;;8.43;7.72;;;21.50;59.10;;;;;;5059226;28;20125;-52
2023/07/21 07:58:15;;;;;;;8.77;8.00;;;21.60;58.70;;;;;;5068708;28;20575;-49
2023/07/21 08:00:43;;;;;;;9.43;8.50;;;21.60;58.40;;;;;;5047858;28;20442;-52
2023/07/21 08:03:10;;;;;;;8.50;7.43;;;21.70;58.60;;;;;;5062322;28;20379;-50
2023/07/21 08:05:38;;;;;;;7.70;6.93;;;21.70;58.20;;;;;;5063623;28;20482;-52
2023/07/21 08:08:06;;;;;;;7.90;7.15;;;21.80;58.20;;;;;;5050613;28;20068;-52
2023/07/21 08:10:34;;;;;;;9.50;8.55;;;21.90;57.80;;;;;;5049799;28;20114;-52
2023/07/21 08:13:04;;;;;;;7.30;6.70;;;21.90;58.10;;;;;;5055257;28;20068;-51
2023/07/21 08:15:30;;;;;;;9.10;8.18;;;22.00;57.80;;;;;;5069497;28;20546;-51
2023/07/21 08:17:57;;;;;;;8.95;8.05;;;22.10;57.40;;;;;;5067602;28;20050;-51
2023/07/21 08:20:24;;;;;;;8.80;8.00;;;22.20;57.10;;;;;;5067941;28;20506;-49
2023/07/21 08:22:51;;;;;;;8.23;7.53;;;22.30;56.80;;;;;;5044909;28;20052;-49
2023/07/21 08:25:19;;;;;;;7.82;7.13;;;22.30;56.50;;;;;;5070423;28;20032;-52
2023/07/21 08:27:46;;;;;;;9.15;8.30;;;22.40;56.40;;;;;;5061454;28;20441;-52
2023/07/21 08:30:14;;;;;;;8.27;7.57;;;22.50;56.30;;;;;;5066487;28;20106;-52
2023/07/21 08:32:41;;;;;;;8.38;7.68;;;22.50;56.20;;;;;;5069961;28;20040;-51
2023/07/21 08:35:09;;;;;;;8.82;8.02;;;22.60;55.90;;;;;;5059107;28;20128;-51
2023/07/21 08:37:38;;;;;;;8.45;7.72;;;22.60;55.90;;;;;;5063614;28;20120;-50
2023/07/21 08:40:06;;;;;;;8.27;7.47;;;22.60;55.70;;;;;;5065823;28;20094;-50
2023/07/21 08:42:35;;;;;;;7.38;6.75;;;22.60;55.40;;;;;;5061314;28;20041;-49
2023/07/21 08:45:04;;;;;;;9.20;8.40;;;22.60;55.20;;;;;;5061720;28;20143;-51
2023/07/21 08:47:34;;;;;;;9.02;8.13;;;22.60;55.20;;;;;;5066795;28;20045;-48
2023/07/21 08:50:03;;;;;;;7.47;6.78;;;22.60;54.40;;;;;;5068299;28;20048;-52
2023/07/21 08:52:33;;;;;;;6.88;6.28;;;22.60;54.30;;;;;;5061099;28;20065;-49
2023/07/21 08:55:00;;;;;;;8.93;8.13;;;22.50;54.20;;;;;;5062549;28;20528;-51
2023/07/21 08:57:27;;;;;;;9.52;8.07;;;22.50;54.40;;;;;;5060344;28;20120;-49
2023/07/21 08:59:55;;;;;;;8.65;6.93;;;22.50;54.20;;;;;;5063324;28;20572;-51
2023/07/21 09:02:38;;;;;;;7.53;6.75;;;22.50;54.50;;;;;;5065582;28;20489;-49
2023/07/21 09:05:06;;;;;;;6.95;6.30;;;22.50;53.90;;;;;;5060004;28;20045;-52
2023/07/21 09:07:34;;;;;;;7.85;7.10;;;22.50;54.60;;;;;;5059236;28;20521;-49
2023/07/21 09:10:01;;;;;;;7.88;7.18;;;22.50;54.20;;;;;;5048697;28;20033;-50
2023/07/21 09:12:37;;;;;;;7.47;6.75;;;22.60;53.70;;;;;;5061047;28;20543;-52
2023/07/21 09:15:09;;;;;;;8.00;6.75;;;22.70;53.70;;;;;;5058157;28;20094;-52
2023/07/21 09:17:42;;;;;;;9.25;8.30;;;22.70;53.40;;;;;;5069081;28;20071;-52
2023/07/21 09:20:10;;;;;;;9.68;8.80;;;22.80;52.90;;;;;;5064857;28;20044;-50
2023/07/21 09:22:40;;;;;;;8.48;7.78;;;22.90;53.00;;;;;;5062411;28;20043;-52
2023/07/21 09:25:08;;;;;;;9.63;8.73;;;23.00;52.80;;;;;;5048018;28;20094;-51
2023/07/21 09:27:38;;;;;;;8.27;7.47;;;23.10;53.10;;;;;;5068729;28;20306;-52
2023/07/21 09:30:05;;;;;;;9.43;8.25;;;23.20;53.60;;;;;;5046517;28;20494;-51
2023/07/21 09:32:40;;;;;;;8.15;7.43;;;23.30;53.00;;;;;;5063953;28;20036;-51
2023/07/21 09:35:09;;;;;;;9.55;8.65;;;23.50;52.10;;;;;;5062853;28;20430;-52
2023/07/21 09:37:37;;;;;;;9.13;8.23;;;23.60;51.70;;;;;;5062488;28;20098;-47
2023/07/21 09:40:09;;;;;;;9.65;8.38;;;23.70;51.50;;;;;;5063668;28;20068;-50
2023/07/21 09:42:38;;;;;;;9.50;8.67;;;23.90;51.30;;;;;;5064100;28;20049;-52
2023/07/21 09:45:05;;;;;;;8.90;8.10;;;24.00;50.80;;;;;;5063758;28;20379;-50
2023/07/21 09:47:32;;;;;;;8.77;7.97;;;24.10;50.60;;;;;;5059834;28;20053;-52
2023/07/21 09:49:59;;;;;;;9.30;8.52;;;24.20;50.30;;;;;;5064145;28;20044;-51
2023/07/21 09:52:27;;;;;;;10.38;9.13;;;24.30;49.60;;;;;;5067570;28;20417;-52
2023/07/21 09:55:06;;;;;;;9.43;8.57;;;24.40;48.90;;;;;;5063253;28;20098;-48
2023/07/21 09:57:35;;;;;;;7.43;6.72;;;24.50;48.20;;;;;;5066987;28;20572;-47
2023/07/21 10:00:07;;;;;;;6.75;6.07;;;24.60;48.70;;;;;;5064957;28;20049;-50
2023/07/21 10:02:45;;;;;;;6.78;6.05;;;24.70;48.20;;;;;;5066712;28;20032;-49
2023/07/21 10:05:13;;;;;;;7.25;6.55;;;24.80;48.00;;;;;;5061765;28;20120;-53
2023/07/21 10:07:43;;;;;;;6.15;5.65;;;24.90;48.10;;;;;;5064310;28;20105;-49
2023/07/21 10:10:11;;;;;;;6.38;5.78;;;25.00;47.60;;;;;;5053688;28;20673;-49
2023/07/21 10:13:05;;;;;;;5.93;5.45;;;25.00;47.40;;;;;;5063966;28;20102;-50
2023/07/21 10:15:33;;;;;;;6.22;5.63;;;25.10;47.30;;;;;;5056908;28;20056;-48
2023/07/21 10:18:06;;;;;;;6.90;6.28;;;25.30;46.70;;;;;;5067568;28;20063;-53
2023/07/21 10:20:42;;;;;;;6.85;6.25;;;25.40;46.40;;;;;;5062359;28;20052;-53
2023/07/21 10:23:11;;;;;;;6.05;5.55;;;25.50;45.90;;;;;;5060910;28;20810;-48
2023/07/21 10:25:51;;;;;;;7.43;5.55;;;25.50;46.10;;;;;;5063925;28;20044;-54
2023/07/21 10:28:31;;;;;;;5.40;4.45;;;25.60;45.30;;;;;;5062131;28;20040;-54
2023/07/21 10:31:26;;;;;;;5.50;5.10;;;25.60;45.40;;;;;;5064290;28;20094;-54
2023/07/21 10:34:11;;;;;;;6.25;5.75;;;25.60;45.10;;;;;;5061654;28;20417;-55
2023/07/21 10:36:42;;;;;;;4.72;4.35;;;25.60;44.20;;;;;;5062990;28;20037;-51
2023/07/21 10:39:16;;;;;;;8.40;7.60;;;25.60;44.80;;;;;;5048728;28;20082;-50
2023/07/21 10:41:43;;;;;;;6.78;6.28;;;25.50;44.40;;;;;;5062561;28;20045;-52
2023/07/21 10:44:11;;;;;;;5.22;4.80;;;25.40;44.80;;;;;;5061271;28;20068;-50
2023/07/21 10:46:40;;;;;;;5.55;4.68;;;25.40;44.80;;;;;;5065436;28;20045;-48
2023/07/21 10:49:12;;;;;;;3.95;3.65;;;25.40;45.20;;;;;;5060974;28;20043;-52
2023/07/21 10:51:44;;;;;;;4.97;4.40;;;25.40;45.10;;;;;;5085346;22;20048;-53
2023/07/21 10:54:13;;;;;;;4.80;4.40;;;25.40;45.00;;;;;;5048114;28;20049;-56
2023/07/21 10:56:41;;;;;;;4.03;3.72;;;25.40;44.70;;;;;;5039837;28;20041;-57
2023/07/21 10:59:12;;;;;;;4.72;4.32;;;25.50;45.20;;;;;;5046429;28;20041;-56
2023/07/21 11:01:41;;;;;;;5.47;3.87;;;25.30;44.50;;;;;;5046812;28;20064;-57
2023/07/21 11:04:09;;;;;;;5.00;4.55;;;25.30;44.90;;;;;;5045913;28;20049;-57
2023/07/21 11:06:40;;;;;;;4.57;4.18;;;25.30;44.90;;;;;;5050437;28;20037;-57
2023/07/21 11:09:11;;;;;;;3.95;3.40;;;25.30;44.60;;;;;;5046192;28;20067;-57
2023/07/21 11:11:42;;;;;;;4.50;4.10;;;25.40;45.20;;;;;;5038695;28;20458;-58
2023/07/21 11:14:12;;;;;;;5.10;4.68;;;25.50;44.70;;;;;;5035820;28;20053;-57
2023/07/21 11:16:53;;;;;;;4.03;3.72;;;25.60;44.20;;;;;;5046847;28;20045;-57
2023/07/21 11:19:21;;;;;;;3.85;3.55;;;25.70;43.90;;;;;;5045107;28;20124;-57
2023/07/21 11:21:48;;;;;;;4.25;3.85;;;25.80;44.40;;;;;;5045264;28;20045;-58
2023/07/21 11:24:28;;;;;;;3.25;2.92;;;25.90;44.60;;;;;;5047646;28;21562;-57
2023/07/21 11:27:02;;;;;;;3.28;2.97;;;26.00;43.30;;;;;;5047084;28;20410;-58
2023/07/21 11:29:37;;;;;;;2.90;2.70;;;26.10;43.20;;;;;;5045543;28;20501;-57
2023/07/21 11:32:22;;;;;;;4.00;3.63;;;26.20;42.10;;;;;;5048087;28;20132;-57
2023/07/21 11:34:56;;;;;;;2.97;2.78;;;26.30;41.60;;;;;;5046241;28;20053;-57
2023/07/21 11:37:24;;;;;;;3.42;3.13;;;26.30;41.50;;;;;;5041425;28;20466;-57
2023/07/21 11:39:57;;;;;;;3.92;3.10;;;26.40;41.90;;;;;;5033779;28;20053;-57
2023/07/21 11:42:25;;;;;;;3.90;2.65;;;26.30;41.30;;;;;;5046898;28;20519;-57
2023/07/21 11:44:52;;;;;;;3.25;3.00;;;26.30;41.90;;;;;;5047563;28;20511;-56
2023/07/21 11:47:19;;;;;;;2.90;2.70;;;26.20;41.80;;;;;;5046251;28;20049;-55
2023/07/21 11:49:51;;;;;;;3.15;2.83;;;26.20;41.80;;;;;;5047206;28;20041;-57
2023/07/21 11:52:24;;;;;;;;;;;26.00;42.00;;;;;;5045109;28;20474;-57
2023/07/21 11:54:53;;;;;;;6.07;2.90;;;26.00;43.00;;;;;;5047649;28;19928;-57
2023/07/21 11:57:20;;;;;;;3.13;2.92;;;25.80;42.70;;;;;;5046044;28;20406;-55
2023/07/21 11:59:47;;;;;;;3.30;3.10;;;25.60;42.70;;;;;;5045723;28;20703;-57
2023/07/21 12:02:16;;;;;;;3.60;3.30;;;25.40;42.80;;;;;;5048631;28;20049;-56
2023/07/21 12:04:44;;;;;;;3.22;2.88;;;25.30;43.00;;;;;;5048468;28;20040;-57
2023/07/21 12:07:10;;;;;;;3.85;3.28;;;25.10;43.20;;;;;;5046561;28;20064;-57
2023/07/21 12:09:38;;;;;;;3.40;3.10;;;25.00;43.80;;;;;;5039915;28;20045;-57
2023/07/21 12:12:07;;;;;;;3.78;3.38;;;24.90;44.20;;;;;;5047480;28;20041;-57
2023/07/21 12:14:34;;;;;;;5.18;3.53;;;24.70;44.60;;;;;;5047336;28;20051;-57
2023/07/21 12:17:00;;;;;;;5.45;3.78;;;24.60;45.10;;;;;;5047321;28;20087;-57
2023/07/21 12:19:27;;;;;;;6.97;3.38;;;24.50;45.70;;;;;;5045868;28;20472;-55
2023/07/21 12:21:54;;;;;;;4.50;3.38;;;24.30;47.80;;;;;;5047022;28;20118;-57
2023/07/21 12:24:21;;;;;;;11.75;4.03;;;24.00;49.20;;;;;;5041954;28;20056;-57
2023/07/21 12:26:48;;;;;;;4.80;4.20;;;23.70;51.10;;;;;;5031096;28;20103;-56
2023/07/21 12:29:16;;;;;;;4.50;3.58;;;23.30;53.10;;;;;;5034645;28;20053;-56
2023/07/21 12:32:03;;;;;;;4.25;3.85;;;22.80;53.00;;;;;;5045203;28;20402;-57
2023/07/21 12:34:30;;;;;;;4.55;4.20;;;22.30;54.40;;;;;;5048662;28;20414;-57
2023/07/21 12:36:57;;;;;;;3.45;3.15;;;21.80;56.50;;;;;;5048413;28;20041;-57
2023/07/21 12:39:23;;;;;;;4.25;3.08;;;21.40;57.10;;;;;;5047383;28;20045;-57
2023/07/21 12:41:50;;;;;;;4.35;3.45;;;20.90;58.00;;;;;;5048625;28;20136;-57
2023/07/21 12:44:17;;;;;;;6.72;3.42;;;20.50;59.10;;;;;;5047610;28;20380;-53
2023/07/21 12:46:46;;;;;;;5.75;3.90;;;20.10;60.40;;;;;;5047484;28;20104;-55
2023/07/21 12:49:13;;;;;;;3.47;3.17;;;19.80;61.70;;;;;;5045857;28;20508;-54
2023/07/21 12:51:39;;;;;;;4.43;4.00;;;19.50;63.10;;;;;;5049082;28;20041;-54
2023/07/21 12:54:08;;;;;;;4.22;3.85;;;19.30;64.30;;;;;;5035706;28;20061;-55
2023/07/21 12:56:34;;;;;;;5.05;4.65;;;19.10;65.30;;;;;;5046724;28;20072;-55
2023/07/21 12:59:01;;;;;;;5.13;4.63;;;18.90;66.20;;;;;;5043844;28;20060;-55